Time;durP1;ratioP1;P1;durP2;ratioP2;P2;SDS_P1;SDS_P2;PMS_P1;PMS_P2;Temp;Humidity;BMP_temperature;BMP_pressure;BME280_temperature;BME280_humidity;BME280_pressure;Samples;Min_cycle;Max_cycle;Signal;HPM_P1;HPM_P2
2023/05/24 00:00:32;;;;;;;13.85;2.80;;;8.10;99.90;;;;;;5073319;28;20434;-78
2023/05/24 00:02:58;;;;;;;12.73;2.88;;;8.80;99.90;;;;;;5072475;28;20084;-78
2023/05/24 00:05:24;;;;;;;13.00;3.25;;;9.20;99.90;;;;;;5072988;28;20052;-79
2023/05/24 00:07:50;;;;;;;18.02;3.15;;;8.90;99.90;;;;;;5072602;28;20048;-79
2023/05/24 00:10:16;;;;;;;16.98;2.58;;;8.90;99.90;;;;;;5072340;28;20439;-79
2023/05/24 00:12:41;;;;;;;18.80;3.35;;;8.90;99.90;;;;;;5039899;28;20036;-78
2023/05/24 00:15:07;;;;;;;16.40;2.88;;;8.90;99.90;;;;;;5055233;28;20467;-79
2023/05/24 00:17:39;;;;;;;19.38;2.67;;;8.90;99.90;;;;;;5091193;28;20044;-78
2023/05/24 00:20:09;;;;;;;8.23;1.88;;;9.10;99.90;;;;;;5072100;28;20044;-78
2023/05/24 00:22:36;;;;;;;15.40;3.08;;;8.90;99.90;;;;;;5072405;28;20506;-79
2023/05/24 00:25:03;;;;;;;15.75;2.58;;;9.00;99.90;;;;;;5055622;28;20444;-78
2023/05/24 00:27:29;;;;;;;16.45;3.05;;;9.00;99.90;;;;;;5072380;28;20082;-78
2023/05/24 00:29:54;;;;;;;16.55;3.10;;;9.00;99.90;;;;;;5091167;28;20397;-79
2023/05/24 00:32:20;;;;;;;11.32;2.42;;;9.00;99.90;;;;;;5070909;28;20079;-79
2023/05/24 00:34:46;;;;;;;13.07;3.05;;;9.10;99.90;;;;;;5072333;28;20086;-78
2023/05/24 00:37:11;;;;;;;18.83;3.65;;;9.10;99.90;;;;;;5071836;28;20056;-78
2023/05/24 00:39:37;;;;;;;13.68;2.75;;;9.10;99.90;;;;;;5072257;28;20123;-78
2023/05/24 00:42:03;;;;;;;12.60;2.42;;;9.10;99.90;;;;;;5071877;28;20040;-79
2023/05/24 00:44:30;;;;;;;13.32;2.30;;;9.20;99.90;;;;;;5071928;28;20067;-78
2023/05/24 00:46:56;;;;;;;9.85;2.25;;;9.30;99.90;;;;;;5072056;28;20040;-78
2023/05/24 00:49:22;;;;;;;17.90;2.90;;;9.30;99.90;;;;;;5070583;28;20063;-78
2023/05/24 00:51:50;;;;;;;18.17;4.35;;;9.30;99.90;;;;;;5071096;28;20052;-78
2023/05/24 00:54:15;;;;;;;13.05;2.17;;;9.30;99.90;;;;;;5054201;28;20040;-79
2023/05/24 00:56:42;;;;;;;16.45;2.65;;;8.50;99.90;;;;;;5070571;28;20081;-78
2023/05/24 00:59:08;;;;;;;15.57;3.42;;;9.80;99.90;;;;;;5070458;28;20036;-78
2023/05/24 01:01:36;;;;;;;12.30;2.25;;;9.60;99.90;;;;;;5070349;28;20515;-78
2023/05/24 01:04:02;;;;;;;7.95;2.40;;;9.30;99.90;;;;;;5088974;28;20417;-78
2023/05/24 01:06:28;;;;;;;12.60;2.80;;;9.30;99.90;;;;;;5070162;28;20051;-78
2023/05/24 01:09:12;;;;;;;16.27;2.67;;;9.40;99.90;;;;;;5070405;28;20047;-78
2023/05/24 01:11:58;;;;;;;16.45;2.65;;;9.30;99.90;;;;;;5088173;28;20048;-78
2023/05/24 01:14:37;;;;;;;8.40;1.98;;;9.20;99.90;;;;;;5070972;28;20595;-78
2023/05/24 01:17:17;;;;;;;11.35;2.42;;;9.20;99.90;;;;;;5088571;28;20502;-78
2023/05/24 01:19:55;;;;;;;13.45;2.50;;;9.10;99.90;;;;;;5069748;28;20048;-78
2023/05/24 01:22:28;;;;;;;15.05;2.67;;;9.10;99.90;;;;;;5070812;28;20748;-78
2023/05/24 01:25:20;;;;;;;15.68;2.42;;;8.60;99.90;;;;;;5070015;28;20499;-78
2023/05/24 01:27:47;;;;;;;16.05;2.53;;;9.30;99.90;;;;;;5039237;28;20048;-78
2023/05/24 01:30:13;;;;;;;11.95;2.45;;;9.10;99.90;;;;;;5053774;28;20430;-78
2023/05/24 01:32:39;;;;;;;9.63;2.78;;;9.60;99.90;;;;;;5069672;28;20059;-78
2023/05/24 01:35:05;;;;;;;13.45;3.70;;;9.20;99.90;;;;;;5053980;28;20052;-78
2023/05/24 01:37:31;;;;;;;13.27;2.28;;;9.20;99.90;;;;;;5069482;28;20529;-78
2023/05/24 01:39:57;;;;;;;18.40;2.97;;;9.30;99.90;;;;;;5069809;28;20044;-79
2023/05/24 01:42:30;;;;;;;9.45;2.03;;;9.30;99.90;;;;;;5069704;28;20044;-78
2023/05/24 01:45:28;;;;;;;11.27;2.42;;;9.20;99.90;;;;;;5069654;28;20184;-78
2023/05/24 01:48:04;;;;;;;19.35;4.30;;;9.20;99.90;;;;;;5063144;28;20521;-78
2023/05/24 01:50:47;;;;;;;14.27;2.85;;;9.30;99.90;;;;;;5069914;28;20048;-78
2023/05/24 01:53:17;;;;;;;13.73;3.00;;;9.80;99.90;;;;;;5069989;28;20395;-78
2023/05/24 01:55:45;;;;;;;10.77;2.50;;;9.30;99.90;;;;;;5069798;28;20126;-78
2023/05/24 01:58:12;;;;;;;11.52;2.42;;;10.50;99.90;;;;;;5069761;28;20361;-78
2023/05/24 02:00:39;;;;;;;8.55;2.72;;;9.20;99.90;;;;;;5070021;28;20051;-78
2023/05/24 02:03:05;;;;;;;13.38;2.78;;;9.70;99.90;;;;;;5053058;28;20456;-78
2023/05/24 02:05:32;;;;;;;10.45;2.45;;;9.90;99.90;;;;;;5053283;28;20075;-78
2023/05/24 02:07:58;;;;;;;13.60;2.60;;;9.20;99.90;;;;;;5052759;28;20055;-78
2023/05/24 02:10:24;;;;;;;11.63;2.17;;;9.50;99.90;;;;;;5069421;28;20052;-78
2023/05/24 02:12:50;;;;;;;7.80;1.88;;;9.20;99.90;;;;;;5070038;28;20052;-78
2023/05/24 02:15:15;;;;;;;11.30;2.28;;;9.20;99.90;;;;;;5069212;28;20108;-79
2023/05/24 02:17:42;;;;;;;21.13;2.90;;;9.20;99.90;;;;;;5052998;28;20036;-79
2023/05/24 02:20:08;;;;;;;13.05;2.25;;;9.20;99.90;;;;;;5069269;28;20052;-80
2023/05/24 02:22:34;;;;;;;9.15;2.28;;;9.20;99.90;;;;;;5069788;28;20063;-77
2023/05/24 02:25:00;;;;;;;11.10;2.47;;;9.20;99.90;;;;;;5069423;28;20391;-79
2023/05/24 02:27:25;;;;;;;12.63;2.20;;;9.30;99.90;;;;;;5069158;28;20500;-78
2023/05/24 02:29:51;;;;;;;16.98;1.98;;;9.20;99.90;;;;;;5069879;28;20071;-79
2023/05/24 02:32:17;;;;;;;13.55;2.33;;;9.70;99.90;;;;;;5069050;28;20084;-79
2023/05/24 02:34:43;;;;;;;13.50;2.50;;;9.30;99.90;;;;;;5069827;28;20109;-79
2023/05/24 02:37:13;;;;;;;10.55;2.60;;;9.40;99.90;;;;;;5052421;28;20130;-79
2023/05/24 02:39:42;;;;;;;12.13;2.05;;;9.90;99.90;;;;;;5070156;28;20079;-79
2023/05/24 02:42:08;;;;;;;14.40;2.17;;;9.50;99.90;;;;;;5069353;28;20119;-79
2023/05/24 02:44:34;;;;;;;14.00;2.03;;;9.60;99.90;;;;;;5053060;28;20082;-79
2023/05/24 02:47:00;;;;;;;11.15;2.42;;;9.90;99.90;;;;;;5069323;28;20479;-79
2023/05/24 02:49:25;;;;;;;17.88;3.08;;;10.20;99.90;;;;;;5068771;28;20052;-79
2023/05/24 02:51:51;;;;;;;11.02;2.58;;;9.60;99.90;;;;;;5069450;28;20126;-79
2023/05/24 02:54:17;;;;;;;10.57;2.33;;;9.50;99.90;;;;;;5069073;28;20040;-79
2023/05/24 02:56:43;;;;;;;11.25;2.15;;;9.70;99.90;;;;;;5073296;28;20036;-79
2023/05/24 02:59:09;;;;;;;16.15;3.67;;;10.10;99.90;;;;;;5072886;28;20435;-79
2023/05/24 03:01:35;;;;;;;12.68;1.65;;;9.80;99.90;;;;;;5072740;28;20059;-79
2023/05/24 03:04:01;;;;;;;15.93;3.42;;;9.80;99.90;;;;;;5072838;28;20047;-79
2023/05/24 03:06:27;;;;;;;16.63;2.38;;;9.90;99.90;;;;;;5055974;28;20048;-79
2023/05/24 03:08:52;;;;;;;14.45;2.78;;;9.90;99.90;;;;;;5056104;28;20141;-79
2023/05/24 03:11:20;;;;;;;9.98;2.05;;;10.10;99.90;;;;;;5055571;28;20047;-79
2023/05/24 03:13:47;;;;;;;14.52;2.00;;;9.90;99.90;;;;;;5072592;28;20058;-79
2023/05/24 03:16:13;;;;;;;13.25;2.33;;;9.90;99.90;;;;;;5055576;28;20043;-79
2023/05/24 03:18:39;;;;;;;9.40;2.00;;;9.90;99.90;;;;;;5072930;28;20040;-79
2023/05/24 03:21:06;;;;;;;15.02;2.10;;;9.90;99.90;;;;;;5055755;28;20189;-79
2023/05/24 03:23:32;;;;;;;10.65;1.70;;;9.90;99.90;;;;;;5071847;28;20055;-78
2023/05/24 03:25:58;;;;;;;11.35;2.00;;;9.80;99.90;;;;;;5072701;28;20048;-77
2023/05/24 03:28:23;;;;;;;12.45;1.77;;;10.60;99.90;;;;;;5054964;28;20452;-78
2023/05/24 03:30:49;;;;;;;8.95;2.38;;;9.80;99.90;;;;;;5090776;28;20119;-78
2023/05/24 03:33:15;;;;;;;7.00;1.35;;;10.30;99.90;;;;;;5055100;28;20044;-78
2023/05/24 03:35:41;;;;;;;14.77;2.08;;;10.50;99.90;;;;;;5055100;28;20065;-78
2023/05/24 03:38:06;;;;;;;10.95;2.15;;;9.90;99.90;;;;;;5071872;28;20487;-78
2023/05/24 03:40:33;;;;;;;12.13;2.30;;;9.90;99.90;;;;;;5090151;28;20541;-78
2023/05/24 03:42:59;;;;;;;13.35;2.13;;;10.00;99.90;;;;;;5055528;28;20734;-78
2023/05/24 03:45:25;;;;;;;10.98;2.50;;;10.00;99.90;;;;;;5089854;28;20056;-78
2023/05/24 03:47:50;;;;;;;17.48;2.67;;;10.00;99.90;;;;;;5090181;28;20055;-78
2023/05/24 03:50:16;;;;;;;10.52;1.85;;;10.00;99.90;;;;;;5089256;28;20097;-78
2023/05/24 03:52:42;;;;;;;18.30;2.78;;;11.10;99.90;;;;;;5070877;28;20054;-78
2023/05/24 03:55:08;;;;;;;10.15;1.90;;;10.10;99.90;;;;;;5070773;28;20046;-78
2023/05/24 03:57:33;;;;;;;12.73;2.33;;;10.10;99.90;;;;;;5070702;28;20094;-78
2023/05/24 03:59:59;;;;;;;10.57;2.00;;;10.40;99.90;;;;;;5088935;28;20043;-78
2023/05/24 04:02:25;;;;;;;15.35;2.63;;;10.20;99.90;;;;;;5054119;28;20495;-78
2023/05/24 04:04:51;;;;;;;13.73;2.13;;;10.20;99.90;;;;;;5053700;28;20393;-78
2023/05/24 04:07:18;;;;;;;12.30;3.08;;;10.30;99.90;;;;;;5053481;28;20052;-77
2023/05/24 04:09:44;;;;;;;15.45;2.72;;;10.30;99.90;;;;;;5070784;28;20460;-78
2023/05/24 04:12:10;;;;;;;18.52;2.33;;;10.30;99.90;;;;;;5069812;28;20051;-78
2023/05/24 04:14:36;;;;;;;15.05;2.20;;;10.40;99.90;;;;;;5070043;28;20056;-78
2023/05/24 04:17:04;;;;;;;11.68;1.92;;;10.40;99.90;;;;;;5070591;28;20042;-78
2023/05/24 04:19:30;;;;;;;12.30;2.40;;;9.60;99.90;;;;;;5070187;28;20054;-78
2023/05/24 04:21:56;;;;;;;15.27;2.90;;;10.50;99.90;;;;;;5070008;28;20040;-78
2023/05/24 04:24:22;;;;;;;13.10;2.03;;;10.90;99.90;;;;;;5070203;28;20469;-78
2023/05/24 04:26:47;;;;;;;13.98;3.05;;;10.50;99.90;;;;;;5070164;28;20040;-78
2023/05/24 04:29:13;;;;;;;9.68;2.60;;;11.00;99.90;;;;;;5053139;28;20047;-78
2023/05/24 04:31:43;;;;;;;15.73;2.53;;;10.60;99.90;;;;;;5036637;28;20084;-78
2023/05/24 04:34:11;;;;;;;12.07;2.17;;;10.30;99.90;;;;;;5069803;28;20051;-79
2023/05/24 04:36:37;;;;;;;14.00;2.17;;;10.60;99.90;;;;;;5053706;28;20041;-79
2023/05/24 04:39:04;;;;;;;18.63;2.63;;;10.90;99.90;;;;;;5053313;28;20092;-79
2023/05/24 04:41:34;;;;;;;11.55;2.30;;;10.60;99.90;;;;;;5069367;28;20690;-79
2023/05/24 04:44:00;;;;;;;15.35;2.17;;;10.70;99.90;;;;;;5088108;28;20131;-79
2023/05/24 04:46:27;;;;;;;7.85;2.00;;;10.70;99.90;;;;;;5052626;28;20131;-79
2023/05/24 04:48:53;;;;;;;14.82;2.33;;;10.70;99.90;;;;;;5069212;28;20055;-79
2023/05/24 04:51:20;;;;;;;12.98;2.88;;;10.70;99.90;;;;;;5052645;28;20156;-78
2023/05/24 04:53:46;;;;;;;11.35;2.47;;;10.60;99.90;;;;;;5069575;28;20116;-78
2023/05/24 04:56:13;;;;;;;11.45;2.20;;;10.70;99.90;;;;;;5069880;28;20484;-78
2023/05/24 04:58:40;;;;;;;11.38;2.30;;;10.70;99.90;;;;;;5036089;28;20044;-77
2023/05/24 05:01:06;;;;;;;13.35;2.53;;;10.70;99.90;;;;;;5053177;28;20036;-77
2023/05/24 05:03:32;;;;;;;15.23;2.53;;;10.80;99.90;;;;;;5069127;28;20799;-77
2023/05/24 05:05:58;;;;;;;11.45;1.83;;;10.80;99.90;;;;;;5035895;28;20090;-77
2023/05/24 05:08:24;;;;;;;10.80;2.38;;;10.80;99.90;;;;;;5069166;28;20275;-77
2023/05/24 05:10:49;;;;;;;11.82;2.40;;;10.90;99.90;;;;;;5069607;28;20135;-76
2023/05/24 05:13:15;;;;;;;12.50;2.38;;;10.90;99.90;;;;;;5069144;28;20051;-75
2023/05/24 05:15:41;;;;;;;18.58;2.70;;;11.00;99.90;;;;;;5069387;28;20040;-77
2023/05/24 05:18:07;;;;;;;13.68;1.77;;;11.10;99.90;;;;;;5052396;28;20040;-77
2023/05/24 05:20:33;;;;;;;11.57;2.33;;;11.10;99.90;;;;;;5087047;28;20538;-76
2023/05/24 05:22:58;;;;;;;12.45;2.35;;;11.20;99.90;;;;;;5069105;28;20048;-77
2023/05/24 05:25:24;;;;;;;11.50;2.72;;;11.30;99.90;;;;;;5068539;28;20457;-76
2023/05/24 05:27:50;;;;;;;19.02;2.47;;;11.30;99.90;;;;;;5068852;28;20134;-76
2023/05/24 05:30:16;;;;;;;12.38;2.60;;;11.40;99.90;;;;;;5087307;28;20453;-77
2023/05/24 05:32:41;;;;;;;9.77;1.65;;;11.50;99.90;;;;;;5068957;28;20036;-78
2023/05/24 05:35:07;;;;;;;8.43;1.90;;;11.50;99.90;;;;;;5069339;28;20486;-80
2023/05/24 05:37:33;;;;;;;10.35;2.50;;;11.60;99.90;;;;;;5051775;28;20054;-79
2023/05/24 05:39:59;;;;;;;16.83;2.72;;;11.60;99.90;;;;;;5052769;28;20048;-80
2023/05/24 05:42:24;;;;;;;11.48;2.10;;;11.70;99.90;;;;;;5051812;28;20104;-80
2023/05/24 05:44:51;;;;;;;12.38;1.90;;;11.70;99.90;;;;;;5035565;28;20048;-79
2023/05/24 05:47:17;;;;;;;16.45;2.97;;;11.80;99.90;;;;;;5051973;28;20052;-78
2023/05/24 05:49:42;;;;;;;17.92;3.80;;;11.80;99.90;;;;;;5068556;28;20208;-79
2023/05/24 05:52:08;;;;;;;9.63;2.53;;;11.90;99.90;;;;;;5069013;28;20105;-81
2023/05/24 05:54:34;;;;;;;12.77;2.45;;;11.90;99.90;;;;;;5018535;28;20148;-82
2023/05/24 05:57:00;;;;;;;13.98;2.55;;;12.40;99.90;;;;;;5052065;28;20094;-78
2023/05/24 05:59:26;;;;;;;18.02;2.50;;;12.00;99.90;;;;;;5068838;28;20044;-79
2023/05/24 06:01:51;;;;;;;15.30;2.58;;;12.00;99.90;;;;;;5051832;28;20506;-79
2023/05/24 06:04:17;;;;;;;14.27;2.30;;;12.20;99.90;;;;;;5068750;28;20044;-79
2023/05/24 06:06:48;;;;;;;16.80;2.58;;;12.30;99.90;;;;;;5068519;28;20052;-79
2023/05/24 06:09:14;;;;;;;8.63;2.53;;;12.30;99.90;;;;;;5051762;28;20062;-79
2023/05/24 06:11:43;;;;;;;10.88;2.10;;;12.40;99.90;;;;;;5051396;28;20116;-79
2023/05/24 06:14:16;;;;;;;6.95;1.70;;;12.60;99.90;;;;;;5068595;28;20044;-79
2023/05/24 06:16:44;;;;;;;11.60;2.00;;;12.40;99.90;;;;;;5036098;28;20105;-79
2023/05/24 06:19:13;;;;;;;10.40;1.80;;;12.50;99.90;;;;;;5051745;28;20123;-79
2023/05/24 06:21:45;;;;;;;9.60;1.52;;;12.50;99.90;;;;;;5051929;28;20055;-79
2023/05/24 06:24:12;;;;;;;15.88;2.20;;;12.60;99.90;;;;;;5068340;28;20110;-79
2023/05/24 06:26:37;;;;;;;7.10;1.85;;;12.70;99.90;;;;;;5068528;28;20052;-79
2023/05/24 06:29:03;;;;;;;10.48;2.30;;;12.70;99.90;;;;;;5068223;28;20116;-78
2023/05/24 06:31:29;;;;;;;10.85;1.92;;;12.80;99.90;;;;;;5071890;28;20070;-79
2023/05/24 06:33:55;;;;;;;7.40;1.75;;;12.90;99.90;;;;;;5072478;28;20058;-79
2023/05/24 06:36:20;;;;;;;8.85;1.65;;;12.90;99.90;;;;;;5055742;28;20510;-79
2023/05/24 06:38:46;;;;;;;12.77;1.63;;;12.90;99.90;;;;;;5055604;28;20040;-79
2023/05/24 06:41:12;;;;;;;12.07;2.08;;;13.00;99.90;;;;;;5071876;28;20103;-79
2023/05/24 06:43:39;;;;;;;20.95;2.55;;;13.00;99.90;;;;;;5072262;28;20233;-79
2023/05/24 06:46:05;;;;;;;8.15;1.60;;;13.10;99.90;;;;;;5055607;28;20086;-78
2023/05/24 06:48:31;;;;;;;6.32;1.40;;;13.10;99.90;;;;;;5071654;28;20502;-79
2023/05/24 06:50:57;;;;;;;6.55;1.90;;;13.10;99.90;;;;;;5072086;28;20060;-79
2023/05/24 06:53:23;;;;;;;7.53;2.53;;;13.00;99.90;;;;;;5090067;28;20059;-79
2023/05/24 06:55:48;;;;;;;11.57;2.25;;;12.90;99.90;;;;;;5071638;28;20479;-79
2023/05/24 06:58:14;;;;;;;11.15;2.05;;;12.90;99.90;;;;;;5054820;28;20139;-79
2023/05/24 07:00:41;;;;;;;9.82;1.70;;;12.90;99.90;;;;;;5038591;28;20040;-79
2023/05/24 07:03:08;;;;;;;10.75;1.70;;;13.00;99.90;;;;;;5055033;28;20452;-79
2023/05/24 07:05:34;;;;;;;13.18;2.08;;;13.00;99.90;;;;;;5055208;28;20115;-79
2023/05/24 07:08:00;;;;;;;6.95;1.50;;;13.20;99.90;;;;;;5071660;28;20052;-79
2023/05/24 07:10:26;;;;;;;10.20;2.05;;;13.10;99.90;;;;;;5071401;28;20068;-79
2023/05/24 07:12:52;;;;;;;12.65;1.70;;;13.30;99.90;;;;;;5071228;28;20079;-79
2023/05/24 07:15:17;;;;;;;9.13;1.58;;;13.60;99.90;;;;;;5071312;28;20344;-79
2023/05/24 07:17:43;;;;;;;7.97;1.88;;;13.90;99.90;;;;;;5071589;28;20039;-79
2023/05/24 07:20:09;;;;;;;8.40;1.40;;;14.10;99.90;;;;;;5070957;28;20055;-79
2023/05/24 07:22:35;;;;;;;18.05;2.53;;;14.10;99.90;;;;;;5054615;28;20040;-79
2023/05/24 07:25:01;;;;;;;7.88;1.70;;;14.10;99.90;;;;;;5054507;28;20074;-79
2023/05/24 07:27:27;;;;;;;10.48;1.90;;;14.10;99.90;;;;;;5071516;28;20040;-79
2023/05/24 07:29:53;;;;;;;12.77;1.85;;;14.00;99.90;;;;;;5071216;28;20438;-78
2023/05/24 07:32:19;;;;;;;7.60;2.20;;;14.00;99.90;;;;;;5054300;28;20063;-77
2023/05/24 07:34:44;;;;;;;5.57;2.05;;;13.80;99.90;;;;;;5037994;28;20071;-78
2023/05/24 07:37:10;;;;;;;5.80;1.75;;;13.70;99.90;;;;;;5071082;28;20047;-78
2023/05/24 07:39:37;;;;;;;9.40;1.80;;;13.60;99.90;;;;;;5089379;28;20054;-78
2023/05/24 07:42:03;;;;;;;8.45;2.28;;;13.50;99.90;;;;;;5070486;28;20127;-78
2023/05/24 07:44:29;;;;;;;12.88;1.77;;;13.50;99.90;;;;;;5070935;28;20359;-78
2023/05/24 07:46:55;;;;;;;13.43;2.42;;;13.50;99.90;;;;;;5070601;28;20044;-77
2023/05/24 07:49:22;;;;;;;9.00;2.15;;;13.40;99.90;;;;;;5053966;28;20055;-78
2023/05/24 07:51:48;;;;;;;9.38;1.80;;;13.50;99.90;;;;;;5071330;28;20551;-79
2023/05/24 07:54:14;;;;;;;3.90;0.90;;;13.60;99.90;;;;;;5053713;28;20138;-77
2023/05/24 07:56:43;;;;;;;8.27;1.45;;;13.80;99.90;;;;;;5070879;28;20526;-78
2023/05/24 07:59:09;;;;;;;12.55;1.92;;;13.90;99.90;;;;;;5053810;28;20079;-78
2023/05/24 08:01:35;;;;;;;5.25;1.30;;;14.20;99.90;;;;;;5070641;28;20145;-79
2023/05/24 08:04:04;;;;;;;7.93;1.52;;;14.40;99.90;;;;;;5054085;28;20094;-78
2023/05/24 08:06:31;;;;;;;7.95;1.73;;;14.60;99.90;;;;;;5070292;28;20094;-78
2023/05/24 08:08:57;;;;;;;2.75;0.93;;;14.80;99.90;;;;;;5053884;28;20130;-78
2023/05/24 08:11:23;;;;;;;6.43;1.48;;;14.90;99.90;;;;;;5069957;28;20174;-78
2023/05/24 08:13:49;;;;;;;4.47;0.90;;;15.30;99.90;;;;;;5070304;28;20109;-78
2023/05/24 08:16:14;;;;;;;7.50;1.67;;;15.40;99.90;;;;;;5053443;28;20079;-79
2023/05/24 08:18:40;;;;;;;8.68;1.70;;;15.30;99.90;;;;;;5088363;28;20044;-78
2023/05/24 08:21:07;;;;;;;4.80;1.27;;;15.30;99.90;;;;;;5070423;28;20188;-79
2023/05/24 08:23:33;;;;;;;5.25;1.52;;;15.10;99.90;;;;;;5070234;28;20066;-79
2023/05/24 08:25:59;;;;;;;6.13;1.40;;;15.10;99.90;;;;;;5070292;28;20559;-78
2023/05/24 08:28:26;;;;;;;4.47;1.30;;;15.00;99.90;;;;;;5036770;28;20047;-78
2023/05/24 08:30:51;;;;;;;6.57;1.40;;;14.80;99.90;;;;;;5070562;28;20040;-79
2023/05/24 08:33:17;;;;;;;5.05;0.93;;;14.70;99.90;;;;;;5069863;28;20484;-78
2023/05/24 08:35:43;;;;;;;7.03;1.45;;;14.60;99.90;;;;;;5069773;28;20052;-78
2023/05/24 08:38:09;;;;;;;5.97;1.48;;;14.40;99.90;;;;;;5053323;28;20050;-78
2023/05/24 08:40:34;;;;;;;7.97;1.40;;;14.40;99.90;;;;;;5069928;28;20449;-78
2023/05/24 08:43:01;;;;;;;5.78;1.10;;;14.40;99.90;;;;;;5069945;28;20040;-78
2023/05/24 08:45:30;;;;;;;13.35;1.60;;;14.40;99.90;;;;;;5069137;28;20048;-78
2023/05/24 08:47:57;;;;;;;8.40;1.30;;;14.30;99.90;;;;;;5069730;28;20494;-79
2023/05/24 08:50:24;;;;;;;8.20;1.48;;;14.30;99.90;;;;;;5052658;28;20055;-78
2023/05/24 08:52:51;;;;;;;5.50;1.63;;;14.30;99.90;;;;;;5069396;28;20040;-78
2023/05/24 08:55:18;;;;;;;6.30;1.40;;;14.40;99.90;;;;;;5069708;28;20437;-78
2023/05/24 08:57:45;;;;;;;12.07;2.25;;;14.50;99.90;;;;;;5053238;28;20052;-78
2023/05/24 09:00:12;;;;;;;5.40;1.20;;;14.40;99.90;;;;;;5053066;28;20040;-79
2023/05/24 09:02:39;;;;;;;8.45;1.45;;;14.40;99.90;;;;;;5069602;28;20530;-79
2023/05/24 09:05:09;;;;;;;10.23;1.98;;;14.30;99.90;;;;;;5069634;28;20093;-78
2023/05/24 09:07:35;;;;;;;7.30;2.22;;;14.20;99.90;;;;;;5068876;28;20052;-78
2023/05/24 09:10:04;;;;;;;7.50;1.55;;;14.20;99.90;;;;;;5069198;28;20128;-79
2023/05/24 09:12:31;;;;;;;9.70;1.67;;;14.20;99.90;;;;;;5069858;28;20506;-78
2023/05/24 09:14:58;;;;;;;13.57;2.03;;;14.10;99.90;;;;;;5069008;28;20095;-78
2023/05/24 09:17:24;;;;;;;6.65;1.63;;;13.90;99.90;;;;;;5052976;28;20131;-78
2023/05/24 09:19:54;;;;;;;8.32;1.60;;;13.80;99.90;;;;;;5068769;28;20040;-78
2023/05/24 09:22:24;;;;;;;10.82;1.48;;;13.70;99.90;;;;;;5052559;28;20440;-78
2023/05/24 09:24:51;;;;;;;6.30;1.27;;;13.70;99.90;;;;;;5069419;28;20495;-78
2023/05/24 09:27:21;;;;;;;10.05;2.17;;;13.60;99.90;;;;;;5069168;28;20511;-78
2023/05/24 09:29:48;;;;;;;10.55;2.22;;;13.60;99.90;;;;;;5068915;28;20123;-78
2023/05/24 09:32:23;;;;;;;8.07;1.70;;;13.70;99.90;;;;;;5068563;28;20040;-78
2023/05/24 09:34:51;;;;;;;4.07;1.42;;;13.70;99.90;;;;;;5069035;28;20044;-78
2023/05/24 09:37:20;;;;;;;10.73;1.70;;;13.70;99.90;;;;;;5068503;28;20044;-78
2023/05/24 09:39:47;;;;;;;8.20;1.60;;;13.70;99.90;;;;;;5068886;28;20505;-79
2023/05/24 09:42:31;;;;;;;8.13;1.40;;;13.80;99.90;;;;;;5035698;28;20038;-78
2023/05/24 09:45:08;;;;;;;8.18;1.55;;;13.90;99.90;;;;;;5068709;28;20093;-79
2023/05/24 09:47:36;;;;;;;6.75;1.50;;;13.90;99.90;;;;;;5052880;28;20499;-78
2023/05/24 09:50:04;;;;;;;9.57;2.33;;;14.00;99.90;;;;;;5050741;28;20166;-78
2023/05/24 09:52:29;;;;;;;7.55;1.70;;;14.20;99.90;;;;;;5018171;28;20032;-79
2023/05/24 09:54:55;;;;;;;7.05;1.60;;;14.50;99.90;;;;;;5050954;28;20054;-79
2023/05/24 09:57:21;;;;;;;6.03;1.70;;;14.70;99.90;;;;;;5067766;28;20082;-78
2023/05/24 09:59:51;;;;;;;4.90;1.63;;;15.00;99.90;;;;;;5067113;28;20052;-79
2023/05/24 10:02:20;;;;;;;4.22;1.20;;;15.40;99.90;;;;;;5050670;28;20518;-79
2023/05/24 10:04:46;;;;;;;5.43;1.40;;;15.70;99.90;;;;;;5053339;28;20536;-79
2023/05/24 10:07:14;;;;;;;6.20;1.20;;;16.20;99.90;;;;;;5055097;28;20048;-79
2023/05/24 10:09:40;;;;;;;7.93;1.40;;;16.40;99.90;;;;;;5071670;28;20479;-79
2023/05/24 10:12:07;;;;;;;6.63;1.73;;;16.40;99.90;;;;;;5054620;28;20048;-79
2023/05/24 10:14:35;;;;;;;7.72;1.75;;;16.40;99.90;;;;;;5054997;28;20048;-79
2023/05/24 10:17:05;;;;;;;6.18;1.38;;;16.30;99.90;;;;;;5071183;28;20086;-79
2023/05/24 10:19:36;;;;;;;8.75;1.85;;;16.20;99.90;;;;;;5071368;28;20048;-79
2023/05/24 10:22:06;;;;;;;6.28;1.10;;;16.20;99.90;;;;;;5089772;28;20486;-79
2023/05/24 10:24:37;;;;;;;7.32;1.80;;;16.30;99.90;;;;;;5071357;28;20536;-79
2023/05/24 10:27:08;;;;;;;15.35;1.85;;;16.30;99.90;;;;;;5071309;28;20048;-80
2023/05/24 10:29:50;;;;;;;9.20;1.60;;;16.30;99.90;;;;;;5070840;28;20052;-81
2023/05/24 10:32:17;;;;;;;4.75;2.05;;;16.20;99.90;;;;;;5070813;28;20054;-79
2023/05/24 10:34:45;;;;;;;10.82;1.65;;;15.90;99.90;;;;;;5070868;28;20044;-79
2023/05/24 10:37:11;;;;;;;11.02;2.17;;;15.70;99.90;;;;;;5071156;28;20044;-77
2023/05/24 10:39:36;;;;;;;14.00;1.90;;;15.50;99.90;;;;;;5070984;28;20071;-77
2023/05/24 10:42:05;;;;;;;12.73;1.88;;;15.30;99.90;;;;;;5071225;28;20070;-78
2023/05/24 10:44:31;;;;;;;6.57;1.95;;;15.30;99.90;;;;;;5054890;28;20044;-78
2023/05/24 10:47:16;;;;;;;7.68;1.80;;;15.40;99.90;;;;;;5070888;28;20122;-78
2023/05/24 10:49:53;;;;;;;6.13;1.90;;;15.40;99.90;;;;;;5070986;28;20060;-78
2023/05/24 10:52:19;;;;;;;13.40;3.63;;;15.40;99.90;;;;;;5070544;28;20052;-78
2023/05/24 10:55:01;;;;;;;9.10;2.08;;;15.40;99.90;;;;;;5071101;28;20043;-78
2023/05/24 10:57:27;;;;;;;7.43;1.50;;;15.50;99.90;;;;;;5070748;28;20054;-78
2023/05/24 10:59:56;;;;;;;11.30;3.35;;;15.50;99.90;;;;;;5070471;28;20044;-77
2023/05/24 11:02:21;;;;;;;7.30;1.73;;;15.40;99.90;;;;;;5070278;28;20082;-79
2023/05/24 11:04:48;;;;;;;9.38;1.52;;;15.40;99.90;;;;;;5070699;28;20126;-79
2023/05/24 11:07:14;;;;;;;6.82;1.83;;;15.40;99.90;;;;;;5070769;28;20537;-79
2023/05/24 11:09:45;;;;;;;6.53;2.33;;;15.40;99.90;;;;;;5070447;28;20087;-78
2023/05/24 11:12:15;;;;;;;7.65;1.90;;;15.40;99.90;;;;;;5070265;28;20124;-79
2023/05/24 11:14:46;;;;;;;9.10;1.60;;;15.40;99.90;;;;;;5053749;28;20097;-79
2023/05/24 11:17:12;;;;;;;4.97;1.33;;;15.40;99.90;;;;;;5069610;28;20087;-79
2023/05/24 11:19:51;;;;;;;7.85;1.75;;;15.50;99.90;;;;;;5053906;28;20083;-79
2023/05/24 11:22:18;;;;;;;8.80;1.90;;;15.80;99.90;;;;;;5053312;28;20044;-78
2023/05/24 11:24:44;;;;;;;8.27;2.00;;;15.90;99.90;;;;;;5070403;28;20044;-79
2023/05/24 11:27:12;;;;;;;9.88;1.55;;;16.20;99.90;;;;;;5069891;28;20165;-79
2023/05/24 11:29:46;;;;;;;6.45;1.35;;;16.60;99.90;;;;;;5069926;28;20056;-80
2023/05/24 11:32:16;;;;;;;5.15;0.93;;;16.90;99.90;;;;;;5070262;28;20052;-79
2023/05/24 11:34:44;;;;;;;8.43;1.70;;;17.00;99.90;;;;;;5070240;28;20110;-80
2023/05/24 11:37:11;;;;;;;5.65;1.48;;;16.90;99.90;;;;;;5021102;28;20044;-78
2023/05/24 11:39:37;;;;;;;8.35;2.35;;;16.70;99.90;;;;;;5069555;28;20090;-78
2023/05/24 11:42:05;;;;;;;5.25;1.90;;;16.40;99.90;;;;;;5070449;28;20049;-79
2023/05/24 11:44:31;;;;;;;4.95;1.42;;;16.20;99.90;;;;;;5053300;28;20044;-80
2023/05/24 11:46:59;;;;;;;6.00;1.58;;;16.10;99.90;;;;;;5052971;28;20182;-79
2023/05/24 11:49:25;;;;;;;8.82;1.95;;;16.00;99.90;;;;;;5069054;28;20455;-77
2023/05/24 11:51:53;;;;;;;8.45;1.77;;;16.00;99.90;;;;;;5036905;28;20516;-78
2023/05/24 11:54:20;;;;;;;5.70;1.98;;;15.90;99.90;;;;;;5069619;28;20040;-79
2023/05/24 11:56:46;;;;;;;6.35;1.52;;;15.70;99.90;;;;;;5053107;28;20106;-80
2023/05/24 11:59:17;;;;;;;4.82;1.25;;;15.40;99.90;;;;;;5052800;28;20050;-79
2023/05/24 12:01:43;;;;;;;12.00;1.88;;;15.40;99.90;;;;;;5069836;28;20463;-79
2023/05/24 12:04:09;;;;;;;8.82;2.00;;;15.30;99.90;;;;;;5052772;28;20036;-78
2023/05/24 12:06:40;;;;;;;10.27;1.83;;;15.30;99.90;;;;;;5052220;28;20055;-78
2023/05/24 12:09:07;;;;;;;6.40;1.58;;;15.30;99.90;;;;;;5052182;28;20050;-83
2023/05/24 12:11:48;;;;;;;7.47;1.60;;;15.30;99.90;;;;;;5052744;28;20059;-84
2023/05/24 12:14:17;;;;;;;9.73;1.77;;;15.30;99.90;;;;;;5069082;28;20048;-80
2023/05/24 12:16:44;;;;;;;7.57;2.17;;;15.30;99.90;;;;;;5069218;28;20127;-79
2023/05/24 12:19:19;;;;;;;9.98;1.88;;;15.10;99.90;;;;;;5068911;28;20052;-80
2023/05/24 12:21:49;;;;;;;7.40;2.30;;;15.10;99.90;;;;;;5052505;28;20083;-79
2023/05/24 12:24:18;;;;;;;10.35;1.70;;;15.10;99.90;;;;;;5068675;28;20052;-80
2023/05/24 12:26:47;;;;;;;10.30;1.70;;;15.00;99.90;;;;;;5068582;28;20430;-79
2023/05/24 12:29:13;;;;;;;8.35;1.55;;;14.90;99.90;;;;;;5068094;28;20086;-80
2023/05/24 12:31:41;;;;;;;3.47;1.33;;;14.80;99.90;;;;;;5052276;28;20044;-81
2023/05/24 12:34:19;;;;;;;8.40;2.05;;;14.80;99.90;;;;;;5068454;28;20123;-79
2023/05/24 12:36:46;;;;;;;13.02;2.03;;;14.80;99.90;;;;;;5068670;28;20192;-79
2023/05/24 12:39:20;;;;;;;8.52;1.58;;;14.90;99.90;;;;;;5051748;28;20124;-78
2023/05/24 12:41:51;;;;;;;12.10;1.75;;;15.00;99.90;;;;;;5068796;28;20052;-80
2023/05/24 12:44:18;;;;;;;11.10;1.58;;;15.10;99.90;;;;;;5052038;28;20162;-79